Aragonborg — PCGK — position and weather

sailwx.info

Track history (hours):
 
Tides and Currents Weather Stations Pressure Air Temp Water Temp Dewpoint Dewpoint Depression Visibility Wind Speed Wind Dir Waves Ship Positions

Aragonborg

Last reported at 2017-Nov-10 23:25 UTC. Time now 2017-Nov-21 12:18 UTC.
Position N 10°59' W 074°45'.
Warning: this ship's position is 10 days out of date.

Length 143 m; draft 8.3 m.

Type: Ship. MMSI: 245953000.

Date/timePositionNaut miles runAvg speedWind from/ knotsBaromVisibWave heightAir tempDewpointWater temp
2017-Nov-10 23:25N 10°59' W 074°45'0 0.0
2017-Nov-10 22:59N 10°59' W 074°45'0 0.0
2017-Nov-10 20:52N 10°59' W 074°45'0 0.0
2017-Nov-10 20:30N 10°59' W 074°45'0 0.0
2017-Nov-10 19:58N 10°59' W 074°45'0 0.0
2017-Nov-10 19:30N 10°59' W 074°45'0 0.0
2017-Nov-10 18:59N 10°59' W 074°45'0 0.0
2017-Nov-10 18:29N 10°59' W 074°45'0 0.0
2017-Nov-10 17:59N 10°59' W 074°45'0 0.0
2017-Nov-10 17:28N 10°59' W 074°45'0 0.0
2017-Nov-10 17:00N 10°59' W 074°45'0 0.0
2017-Nov-10 16:30N 10°59' W 074°45'0 0.0
2017-Nov-10 16:00N 10°59' W 074°45'0 0.0
2017-Nov-10 15:28N 10°59' W 074°45'0 0.0
2017-Nov-10 14:59N 10°59' W 074°45'0 0.0
2017-Nov-10 14:25N 10°59' W 074°45'0 0.0
2017-Nov-10 13:59N 10°59' W 074°45'0 0.0
2017-Nov-10 13:29N 10°59' W 074°45'0 0.0
2017-Nov-10 12:59N 10°59' W 074°45'0 0.0
2017-Nov-10 12:29N 10°59' W 074°45'0 0.0
2017-Nov-10 11:59N 10°59' W 074°45'0 0.0
2017-Nov-10 11:29N 10°59' W 074°45'0 0.0
2017-Nov-10 10:59N 10°59' W 074°45'0 0.0
2017-Nov-10 10:23N 10°59' W 074°45'0 0.0
2017-Nov-10 09:59N 10°59' W 074°45'0 0.0
2017-Nov-10 09:29N 10°59' W 074°45'0 0.0
2017-Nov-10 08:04N 10°59' W 074°45'0 0.0
2017-Nov-10 08:01N 10°59' W 074°45'0 0.0
2017-Nov-10 07:28N 10°59' W 074°45'0 0.0
2017-Nov-10 05:16N 10°59' W 074°45'0 0.0
2017-Nov-10 04:47N 10°59' W 074°45'0 0.0
2017-Nov-10 02:37N 10°59' W 074°45'0 0.0
2017-Nov-10 02:18N 10°59' W 074°45'0 0.0
2017-Nov-09 12:23N 10°59' W 074°45'0 0.0
2017-Nov-09 05:05N 10°59' W 074°45'0 0.0
2017-Nov-09 04:59N 10°59' W 074°45'0 0.0
2017-Nov-09 04:29N 10°59' W 074°45'0 0.0
2017-Nov-09 03:47N 10°59' W 074°45'0 0.0
2017-Nov-09 02:17N 10°59' W 074°45'0 0.0
2017-Nov-09 01:53N 10°59' W 074°45'0 0.0
2017-Nov-09 01:23N 10°59' W 074°45'0 0.0
2017-Nov-08 23:11N 10°59' W 074°45'0 0.0
2017-Nov-08 22:41N 10°59' W 074°45'0 0.0
2017-Nov-08 22:17N 10°59' W 074°45'3 0.7
2017-Nov-08 18:06N 11°01' W 074°47'110.0
2017-Nov-08 18:00N 11°02' W 074°48'4 8.8
2017-Nov-08 17:30N 11°05' W 074°51'4 8.2
2017-Nov-08 17:00N 11°09' W 074°53'4 7.4
2017-Nov-08 16:30N 11°11' W 074°50'2 4.1
2017-Nov-08 15:59N 11°13' W 074°49'  
Track history (hours):
 
Tides and Currents Weather Stations Pressure Air Temp Water Temp Dewpoint Dewpoint Depression Visibility Wind Speed Wind Dir Waves Ship Positions

Aragonborg

Last reported at 2017-Nov-10 23:25 UTC. Time now 2017-Nov-21 12:18 UTC.
Position N 10°59' W 074°45'.
Warning: this ship's position is 10 days out of date.

Length 143 m; draft 8.3 m.

Type: Ship. MMSI: 245953000.

Date/timePositionNaut miles runAvg speedWind from/ knotsBaromVisibWave heightAir tempDewpointWater temp
2017-Nov-10 23:25N 10°59' W 074°45'0 0.0
2017-Nov-10 22:59N 10°59' W 074°45'0 0.0
2017-Nov-10 20:52N 10°59' W 074°45'0 0.0
2017-Nov-10 20:30N 10°59' W 074°45'0 0.0
2017-Nov-10 19:58N 10°59' W 074°45'0 0.0
2017-Nov-10 19:30N 10°59' W 074°45'0 0.0
2017-Nov-10 18:59N 10°59' W 074°45'0 0.0
2017-Nov-10 18:29N 10°59' W 074°45'0 0.0
2017-Nov-10 17:59N 10°59' W 074°45'0 0.0
2017-Nov-10 17:28N 10°59' W 074°45'0 0.0
2017-Nov-10 17:00N 10°59' W 074°45'0 0.0
2017-Nov-10 16:30N 10°59' W 074°45'0 0.0
2017-Nov-10 16:00N 10°59' W 074°45'0 0.0
2017-Nov-10 15:28N 10°59' W 074°45'0 0.0
2017-Nov-10 14:59N 10°59' W 074°45'0 0.0
2017-Nov-10 14:25N 10°59' W 074°45'0 0.0
2017-Nov-10 13:59N 10°59' W 074°45'0 0.0
2017-Nov-10 13:29N 10°59' W 074°45'0 0.0
2017-Nov-10 12:59N 10°59' W 074°45'0 0.0
2017-Nov-10 12:29N 10°59' W 074°45'0 0.0
2017-Nov-10 11:59N 10°59' W 074°45'0 0.0
2017-Nov-10 11:29N 10°59' W 074°45'0 0.0
2017-Nov-10 10:59N 10°59' W 074°45'0 0.0
2017-Nov-10 10:23N 10°59' W 074°45'0 0.0
2017-Nov-10 09:59N 10°59' W 074°45'0 0.0
2017-Nov-10 09:29N 10°59' W 074°45'0 0.0
2017-Nov-10 08:04N 10°59' W 074°45'0 0.0
2017-Nov-10 08:01N 10°59' W 074°45'0 0.0
2017-Nov-10 07:28N 10°59' W 074°45'0 0.0
2017-Nov-10 05:16N 10°59' W 074°45'0 0.0
2017-Nov-10 04:47N 10°59' W 074°45'0 0.0
2017-Nov-10 02:37N 10°59' W 074°45'0 0.0
2017-Nov-10 02:18N 10°59' W 074°45'0 0.0
2017-Nov-09 12:23N 10°59' W 074°45'0 0.0
2017-Nov-09 05:05N 10°59' W 074°45'0 0.0
2017-Nov-09 04:59N 10°59' W 074°45'0 0.0
2017-Nov-09 04:29N 10°59' W 074°45'0 0.0
2017-Nov-09 03:47N 10°59' W 074°45'0 0.0
2017-Nov-09 02:17N 10°59' W 074°45'0 0.0
2017-Nov-09 01:53N 10°59' W 074°45'0 0.0
2017-Nov-09 01:23N 10°59' W 074°45'0 0.0
2017-Nov-08 23:11N 10°59' W 074°45'0 0.0
2017-Nov-08 22:41N 10°59' W 074°45'0 0.0
2017-Nov-08 22:17N 10°59' W 074°45'3 0.7
2017-Nov-08 18:06N 11°01' W 074°47'110.0
2017-Nov-08 18:00N 11°02' W 074°48'4 8.8
2017-Nov-08 17:30N 11°05' W 074°51'4 8.2
2017-Nov-08 17:00N 11°09' W 074°53'4 7.4
2017-Nov-08 16:30N 11°11' W 074°50'2 4.1
2017-Nov-08 15:59N 11°13' W 074°49'  

Dump ship's entire track history